หน้าหลัก
METAR-TAF:

METAR-TAF

ท่าอากาศยาน :

ไบรตัน, อังกฤษ

ละติจูด: 50-50N, ลองจิจูด: 000-17W, ความสูง: 2 ม.

การสังเกตสภาพอากาศปัจจุบัน

รายงานได้ทำขึ้นเมื่อ 5 ชั่วโมงและ 26 นาทีที่แล้ว ณ เวลา 18:50 UTC
ลม 4 นอตจากใต้/ตะวันตกเฉียงใต้
อุณหภูมิ 17°C
ความชื้น 82%
ความกดอากาศ 1014 hPa
ทัศนวิสัย 10 กม. หรือมากกว่า
มีเมฆกระจายเป็นบางส่วนที่ความสูง 4600 ฟุต

METAR: EGKA 181850Z 21004KT 9999 SCT046 17/14 Q1014

เวลา: 01:16 (00:16 UTC)

การพยากรณ์

รายงานได้ทำขึ้นเมื่อ 7 ชั่วโมงและ 22 นาทีที่แล้ว ณ เวลา 16:54 UTC
การพยากรณ์มีผลตั้งแต่วันที่ 18 ณ เวลา 16 UTC จนถึงวันที่ 18 ณ เวลา 19 UTC
ลม 5 นอตจากใต้
ทัศนวิสัย 10 กม. หรือมากกว่า
มีเมฆน้อยที่ความสูง 3500 ฟุต

TAF: EGKA 181654Z 1816/1819 18005KT 9999 FEW035

สังเกตการณ์สภาพอากาศและพยากรณ์อากาศของสนามบินมากกว่า 4000 แห่ง (รายงาน METAR และ TAF).

สถานีที่ดูได้จะแสดงไว้ด้วยจุดสีเหลืองและสีแดงบนแผนที่.

เลื่อนเมาส์ไปเหนือจุดเพื่อดูชื่อสถานี.

แล้วคลิกเพื่อดูสังเกตการณ์และการพยากรณ์สภาพอากาศ.

ในการเปลี่ยนแผนที่: คลิกที่ปุ่มสีเขียวที่มีกากบาทสีดำเพื่อซูมเข้า; ที่ปุ่มสีเขียวที่มีขีดเพื่อซูมออก; หรือที่ลูกศรสีเขียวเพื่อไปยังแผนที่ที่อยู่ติดกัน.


METAR-TAF: